• Join FlightAware (Why Join?)
  • Login
  • US Flag 
04:56PM EST


 

Airport Tracker/Info


-or-


 

Live Flight TrackerFlight Track Log ✈ AMF1324 ✈ 07-Nov-2013 ✈ KBGM - KBUF

Flight Track Log - Related Links

Times and Time Zones

All times are in EST time to prevent confusion due to time zone crossing. See the AMF1324 flight status page for this flight to view local times or setup timezone preferences in your user account.

Time Position Orientation Groundspeed Altitude Reporting Facility
EST Latitude Longitude Course Direction KTS MPH feet Rate Location/Type
08:20AM 42.2528 -76.0714 297° West 165 190 6,500  Level New York Center
08:21AM 42.2775 -76.1236 303° West 170 196 8,400 1,620 Climbing New York Center
08:22AM 42.3067 -76.1681 312° West 170 196 9,900 1,440 Climbing New York Center
08:23AM 42.3228 -76.2256 291° West 158 182 11,400 1,020 Climbing New York Center
08:24AM 42.3322 -76.2881 282° West 152 175 12,000 300 Climbing New York Center
08:25AM 42.2965 -76.2946 297° West  Level Estimated
08:25AM 42.3414 -76.3589 280° West 174 200 12,000  Level New York Center
08:26AM 42.3528 -76.4300 282° West 190 219 12,100  Climbing New York Center
08:27AM 42.3658 -76.5042 283° West 196 226 12,100  Level New York Center
08:28AM 42.3833 -76.5731 289° West 201 231 12,100  Level New York Center
08:31AM 42.4311 -76.7206 294° West 198 228 12,100 -60 Level Cleveland Center
08:32AM 42.4558 -76.8050 292° West 201 231 12,000 -60 Descending Cleveland Center
08:33AM 42.4781 -76.8747 293° West 201 231 12,000  Level Cleveland Center
08:34AM 42.5025 -76.9475 295° West 210 242 12,000  Level Cleveland Center
08:35AM 42.5192 -77.0217 287° West 208 239 12,000  Level Cleveland Center
08:36AM 42.5428 -77.0969 293° West 214 246 12,000  Level Cleveland Center
08:37AM 42.5669 -77.1717 294° West 216 249 12,000  Level Cleveland Center
08:38AM 42.5956 -77.2611 294° West 216 249 12,000  Level Cleveland Center
08:39AM 42.6164 -77.3361 291° West 213 245 12,000  Level Cleveland Center
08:40AM 42.6378 -77.4117 291° West 215 247 12,000  Level Cleveland Center
08:41AM 42.6619 -77.4986 291° West 214 246 12,000  Level Cleveland Center
08:42AM 42.6744 -77.5772 282° West 211 243 12,000  Level Cleveland Center
08:43AM 42.6950 -77.6522 290° West 214 246 12,000 -60 Level Cleveland Center
08:44AM 42.7208 -77.7258 296° West 218 251 11,900 -180 Descending Cleveland Center
08:44AM 42.7294 -77.7578 290° West 218 251 11,800 -840 Descending Cleveland Center
08:45AM 42.7381 -77.8147 282° West 226 260 11,100 -840 Descending Cleveland Center
08:45AM 42.7358 -77.8069 111° Southeast 225 259 11,200 -1,140 Climbing Cleveland Center
08:46AM 42.7517 -77.8961 284° West 238 274 10,100 -1,260 Descending Cleveland Center
08:46AM 42.7547 -77.9119 285° West 237 273 9,900 -1,440 Descending Cleveland Center
08:47AM 42.7717 -77.9794 289° West 234 269 8,700 -1,560 Descending Cleveland Center
08:47AM 42.7781 -77.9994 294° West 236 272 8,300 -2,220 Descending Cleveland Center
08:48AM 42.7958 -78.0608 292° West 236 272 6,500 -2,280 Descending Cleveland Center
08:48AM 42.8011 -78.0806 290° West 238 274 6,000 -1,740 Descending Cleveland Center
08:49AM 42.8208 -78.1681 287° West 232 267 4,300 -960 Descending Cleveland Center
08:50AM 42.8303 -78.2469 279° West 205 236 4,000 -180 Descending Cleveland Center
08:51AM 42.8661 -78.2944 316° Northwest 167 192 4,000  Level Cleveland Center
08:52AM 42.8975 -78.3386 314° West 159 183 4,000  Level Cleveland Center
08:53AM 42.9272 -78.3858 311° West 159 183 4,000  Level Cleveland Center
08:54AM 42.9567 -78.4375 308° West 164 189 4,000 -180 Level Cleveland Center
08:55AM 42.9811 -78.4828 306° West 164 189 3,700 -720 Descending Cleveland Center
08:56AM 43.0153 -78.5411 309° West 177 204 2,600 -720 Descending Cleveland Center
08:57AM 43.0522 -78.5858 319° Northwest 178 205 2,300 -180 Descending Cleveland Center
08:58AM 42.9992 -78.6494 221° Southwest 193 222 2,300 -60 Level Cleveland Center
09:00AM 42.9714 -78.6872 225° Southwest 187 215 2,200 -120 Descending Cleveland Center
09:02AM 42.9333 -78.7167 247° West  Level FlightAware Approximate